ESPA/LLA METAR and TAF weather

Enter ICAO airport designator
Station Type Date Time Source
ESPA METAR 2018/10/21 03:20 UTC NOAA

ESPA 210320Z AUTO 20009KT 9999 FEW084/// SCT100/// 06/04 Q1009


Station Type Date Time Source
ESPA Decoded METAR 2018/10/21 03:20 UTC NOAA

Lulea / Kallax, Sweden (ESPA) 65-33N 022-08E 34M
Oct 20, 2018 - 11:20 PM EDT / 2018.10.21 0320 UTC
Wind: from the SSW (200 degrees) at 10 MPH (9 KT):0
Visibility: greater than 7 mile(s):0
Sky conditions: partly cloudy
Temperature: 42 F (6 C)
Dew Point: 39 F (4 C)
Relative Humidity: 86%
Pressure (altimeter): 29.80 in. Hg (1009 hPa)
ob: ESPA 210320Z AUTO 20009KT 9999 FEW084/// SCT100/// 06/04 Q1009
cycle: 3

Station Type Date Time Source
ESPA TAF 2017/09/16 02:00 UTC NOAA

TAF ESPA 160200 160400/160412 35008KT 9999 BKN007 PROB40 1604/1609 BKN012
TEMPO 1609/1612 BKN015


Example: see airport list